createdAt,value
2022-09-28T00:01:16.347Z,6.80
2022-09-28T00:03:45.608Z,4.20
2022-09-28T00:06:16.266Z,4.30
2022-09-28T00:08:44.857Z,4.70
2022-09-28T00:11:19.040Z,4.60
2022-09-28T00:13:53.098Z,5.50
2022-09-28T00:16:24.326Z,4.50
2022-09-28T00:18:54.281Z,4.90
2022-09-28T00:21:31.227Z,5.00
2022-09-28T00:24:22.933Z,4.80
2022-09-28T00:26:55.571Z,5.70
2022-09-28T00:29:35.942Z,5.10
2022-09-28T00:32:07.794Z,5.10
2022-09-28T00:34:41.383Z,3.80
2022-09-28T00:37:10.225Z,3.90
2022-09-28T00:39:41.340Z,3.50
2022-09-28T00:42:24.980Z,3.80
2022-09-28T00:44:56.936Z,3.80
2022-09-28T00:47:43.328Z,4.00
2022-09-28T00:50:21.645Z,4.10
2022-09-28T00:52:57.831Z,4.20
2022-09-28T00:55:35.378Z,3.90
2022-09-28T00:58:07.017Z,5.00
2022-09-28T01:00:35.474Z,5.40
2022-09-28T01:03:04.097Z,3.90
2022-09-28T01:05:33.999Z,4.50
2022-09-28T01:08:02.986Z,4.60
2022-09-28T01:10:31.690Z,4.40
2022-09-28T01:12:59.719Z,4.80
2022-09-28T01:15:33.353Z,5.10
2022-09-28T01:18:25.646Z,4.60
2022-09-28T01:21:16.865Z,4.30
2022-09-28T01:24:00.427Z,4.00
2022-09-28T01:26:46.110Z,4.30
2022-09-28T01:29:46.225Z,4.50
2022-09-28T01:32:33.683Z,4.80
2022-09-28T01:35:28.790Z,5.00
2022-09-28T01:38:10.495Z,3.90
2022-09-28T01:40:39.520Z,3.90
2022-09-28T01:43:27.325Z,4.60
2022-09-28T01:46:14.671Z,4.70
2022-09-28T01:48:51.629Z,4.40
2022-09-28T01:51:29.357Z,4.90
2022-09-28T01:54:03.777Z,4.50
2022-09-28T01:56:37.420Z,4.50
2022-09-28T01:59:23.438Z,4.20
2022-09-28T02:02:15.748Z,4.00
2022-09-28T02:04:50.848Z,4.70
2022-09-28T02:07:27.173Z,4.20
2022-09-28T02:10:00.810Z,4.40
2022-09-28T02:12:41.642Z,4.20
2022-09-28T02:17:46.620Z,3.90
2022-09-28T02:20:16.199Z,4.00
2022-09-28T02:22:50.133Z,4.60
2022-09-28T02:25:31.450Z,3.90
2022-09-28T02:30:36.684Z,3.40
2022-09-28T02:33:14.287Z,3.70
2022-09-28T02:35:43.266Z,3.80
2022-09-28T02:38:12.704Z,3.60
2022-09-28T02:40:46.749Z,3.60
2022-09-28T02:43:40.741Z,3.60
2022-09-28T02:46:32.910Z,3.50
2022-09-28T02:49:21.770Z,3.40
2022-09-28T02:52:14.215Z,3.40
2022-09-28T02:55:09.920Z,3.90
2022-09-28T02:57:45.835Z,3.70
2022-09-28T03:00:24.345Z,3.60
2022-09-28T03:03:25.801Z,3.40
2022-09-28T03:09:00.272Z,3.30
2022-09-28T03:11:54.639Z,3.50
2022-09-28T03:14:23.101Z,3.30
2022-09-28T03:16:54.296Z,3.50
2022-09-28T03:19:27.595Z,3.10
2022-09-28T03:21:55.794Z,3.20
2022-09-28T03:24:23.632Z,4.00
2022-09-28T03:26:51.973Z,3.60
2022-09-28T03:29:22.468Z,3.70
2022-09-28T03:31:55.177Z,3.10
2022-09-28T03:34:23.213Z,3.60
2022-09-28T03:36:51.075Z,4.20
2022-09-28T03:39:19.107Z,4.10
2022-09-28T03:41:46.913Z,4.10
2022-09-28T03:44:14.940Z,4.40
2022-09-28T03:46:42.808Z,4.00
2022-09-28T03:49:10.812Z,3.40
2022-09-28T03:51:38.689Z,4.00
2022-09-28T03:54:06.883Z,4.10
2022-09-28T03:56:35.415Z,4.20
2022-09-28T03:59:04.624Z,4.00
2022-09-28T04:01:33.438Z,4.30
2022-09-28T04:04:19.226Z,4.10
2022-09-28T04:06:53.688Z,2.90
2022-09-28T04:09:21.497Z,3.20
2022-09-28T04:12:03.452Z,3.00
2022-09-28T04:14:33.898Z,3.60
2022-09-28T04:17:02.219Z,4.00
2022-09-28T04:19:32.880Z,4.00
2022-09-28T04:22:02.217Z,4.40
2022-09-28T04:24:30.856Z,3.80
2022-09-28T04:27:18.599Z,4.00
2022-09-28T04:29:46.389Z,4.00
2022-09-28T04:32:15.486Z,4.50
2022-09-28T04:34:44.457Z,4.50
2022-09-28T04:37:12.731Z,5.20
2022-09-28T04:39:44.035Z,4.70
2022-09-28T04:42:16.114Z,4.50
2022-09-28T04:44:44.123Z,4.40
2022-09-28T04:47:13.249Z,4.50
2022-09-28T04:50:04.176Z,5.00
2022-09-28T04:52:37.904Z,4.60
2022-09-28T04:55:06.719Z,5.20
2022-09-28T04:57:35.745Z,5.30
2022-09-28T05:00:05.495Z,5.60
2022-09-28T05:02:35.993Z,5.90
2022-09-28T05:05:44.834Z,9.40
2022-09-28T05:08:38.149Z,8.80
2022-09-28T05:11:11.382Z,6.00
2022-09-28T05:13:41.978Z,5.30
2022-09-28T05:16:12.299Z,5.70
2022-09-28T05:19:00.386Z,5.50
2022-09-28T05:21:29.502Z,5.40
2022-09-28T05:23:58.507Z,6.80
2022-09-28T05:26:28.310Z,6.80
2022-09-28T05:28:56.811Z,7.00
2022-09-28T05:31:43.589Z,6.20
2022-09-28T05:34:41.503Z,6.20
2022-09-28T05:37:13.581Z,6.50
2022-09-28T05:39:41.417Z,8.30
2022-09-28T05:42:09.562Z,8.20
2022-09-28T05:44:38.568Z,8.00
2022-09-28T05:47:06.488Z,7.70
2022-09-28T05:49:34.687Z,9.60
2022-09-28T05:52:03.096Z,10.40
2022-09-28T05:54:31.977Z,11.20
2022-09-28T05:56:59.890Z,14.00
2022-09-28T05:59:27.889Z,10.40
2022-09-28T06:01:55.778Z,6.20
2022-09-28T06:04:23.747Z,6.10
2022-09-28T06:06:52.530Z,5.00
2022-09-28T06:09:25.185Z,5.80
2022-09-28T06:12:16.835Z,5.90
2022-09-28T06:14:49.333Z,6.20
2022-09-28T06:17:17.264Z,7.10
2022-09-28T06:19:52.474Z,7.20
2022-09-28T06:22:39.695Z,7.20
2022-09-28T06:25:11.501Z,7.50
2022-09-28T06:27:42.783Z,6.50
2022-09-28T06:30:11.495Z,6.40
2022-09-28T06:32:42.292Z,4.50
2022-09-28T06:35:10.591Z,4.70
2022-09-28T06:37:45.702Z,4.10
2022-09-28T06:40:17.019Z,4.20
2022-09-28T06:42:45.413Z,4.30
2022-09-28T06:45:27.955Z,4.10
2022-09-28T06:48:25.109Z,4.30
2022-09-28T06:50:54.016Z,3.90
2022-09-28T06:53:29.847Z,4.20
2022-09-28T06:56:02.693Z,3.30
2022-09-28T06:58:32.510Z,2.80
2022-09-28T07:01:01.328Z,3.00
2022-09-28T07:03:34.030Z,3.20
2022-09-28T07:06:21.281Z,3.00
2022-09-28T07:09:32.337Z,3.90
2022-09-28T07:12:22.716Z,2.50
2022-09-28T07:14:57.459Z,2.30
2022-09-28T07:17:27.599Z,2.80
2022-09-28T07:20:03.515Z,2.70
2022-09-28T07:22:48.770Z,3.00
2022-09-28T07:25:26.066Z,2.40
2022-09-28T07:28:12.479Z,2.20
2022-09-28T07:31:09.812Z,2.30
2022-09-28T07:33:54.099Z,2.60
2022-09-28T07:36:44.602Z,2.20
2022-09-28T07:39:12.541Z,2.70
2022-09-28T07:41:41.538Z,2.20
2022-09-28T07:44:09.336Z,3.10
2022-09-28T07:46:38.269Z,1.90
2022-09-28T07:49:12.987Z,2.10
2022-09-28T07:52:01.662Z,2.70
2022-09-28T07:54:31.326Z,3.60
2022-09-28T07:57:01.809Z,3.30
2022-09-28T07:59:38.578Z,3.20
2022-09-28T08:02:25.933Z,2.20
2022-09-28T08:04:54.537Z,2.40
2022-09-28T08:07:24.170Z,2.50
2022-09-28T08:09:59.632Z,2.50
2022-09-28T08:12:27.847Z,2.40
2022-09-28T08:15:14.293Z,2.40
2022-09-28T08:17:57.992Z,3.00
2022-09-28T08:20:51.601Z,2.70
2022-09-28T08:23:20.623Z,3.90
2022-09-28T08:25:49.570Z,3.30
2022-09-28T08:28:18.174Z,3.50
2022-09-28T08:30:48.612Z,2.60
2022-09-28T08:33:35.663Z,2.70
2022-09-28T08:36:22.718Z,2.90
2022-09-28T08:39:02.464Z,2.40
2022-09-28T08:41:48.730Z,2.40
2022-09-28T08:44:51.956Z,2.70
2022-09-28T08:48:27.340Z,2.50
2022-09-28T08:51:20.075Z,2.30
2022-09-28T08:54:20.341Z,2.90
2022-09-28T08:57:15.684Z,2.30
2022-09-28T08:59:53.792Z,2.60
2022-09-28T09:02:36.410Z,2.30
2022-09-28T09:05:23.707Z,2.20
2022-09-28T09:08:35.213Z,2.80
2022-09-28T09:11:25.468Z,2.70
2022-09-28T09:14:24.811Z,3.50
2022-09-28T09:17:00.451Z,2.70
2022-09-28T09:19:56.194Z,2.90
2022-09-28T09:23:01.429Z,2.60
2022-09-28T09:25:55.205Z,3.10
2022-09-28T09:28:42.242Z,2.70
2022-09-28T09:32:04.156Z,2.50
2022-09-28T09:35:30.607Z,2.30
2022-09-28T09:38:46.530Z,2.50
2022-09-28T09:41:54.825Z,2.60
2022-09-28T09:45:02.871Z,2.70
2022-09-28T09:47:56.656Z,2.40
2022-09-28T09:50:40.131Z,2.20
2022-09-28T09:53:29.764Z,2.80
2022-09-28T09:56:15.364Z,2.60
2022-09-28T09:59:13.969Z,2.50
2022-09-28T10:02:29.500Z,2.60
2022-09-28T10:05:22.393Z,2.60
2022-09-28T10:07:56.494Z,3.30
2022-09-28T10:10:29.506Z,3.00
2022-09-28T10:13:10.370Z,2.80
2022-09-28T10:15:41.495Z,3.30
2022-09-28T10:21:23.239Z,3.50
2022-09-28T10:24:33.882Z,3.50
2022-09-28T10:27:08.726Z,3.80
2022-09-28T10:29:55.947Z,4.20
2022-09-28T10:32:26.406Z,4.70
2022-09-28T10:35:32.708Z,4.90
2022-09-28T10:38:15.977Z,4.80
2022-09-28T10:41:01.329Z,4.70
2022-09-28T10:44:06.662Z,5.50
2022-09-28T10:46:42.468Z,4.50
2022-09-28T10:49:18.365Z,3.10
2022-09-28T10:51:55.006Z,2.60
2022-09-28T10:54:28.431Z,2.40
2022-09-28T10:57:00.095Z,2.70
2022-09-28T10:59:48.232Z,3.50
2022-09-28T11:02:36.001Z,4.60
2022-09-28T11:05:07.992Z,2.90
2022-09-28T11:07:49.505Z,3.40
2022-09-28T11:10:26.197Z,3.20
2022-09-28T11:12:56.946Z,3.60
2022-09-28T11:15:29.959Z,3.50
2022-09-28T11:18:19.094Z,4.20
2022-09-28T11:20:47.356Z,4.10
2022-09-28T11:23:22.788Z,3.60
2022-09-28T11:26:09.547Z,4.00
2022-09-28T11:28:39.186Z,5.90
2022-09-28T11:31:12.577Z,7.60
2022-09-28T11:34:36.498Z,15.30
2022-09-28T11:37:44.568Z,4.60
2022-09-28T11:40:19.379Z,4.30
2022-09-28T11:42:55.958Z,4.40
2022-09-28T11:46:02.966Z,3.90
2022-09-28T11:48:46.237Z,3.80
2022-09-28T11:51:29.045Z,5.20
2022-09-28T11:54:14.466Z,6.10
2022-09-28T11:56:47.878Z,5.70
2022-09-28T11:59:55.634Z,5.30
2022-09-28T12:02:31.100Z,6.70
2022-09-28T12:05:17.108Z,8.30
2022-09-28T12:07:54.529Z,7.20
2022-09-28T12:11:12.582Z,6.60
2022-09-28T12:14:03.957Z,8.40
2022-09-28T12:17:04.267Z,7.10
2022-09-28T12:20:07.403Z,5.00
2022-09-28T12:22:59.544Z,3.80
2022-09-28T12:25:34.075Z,6.50
2022-09-28T12:28:07.730Z,4.00
2022-09-28T12:30:40.649Z,5.20
2022-09-28T12:33:13.449Z,4.60
2022-09-28T12:36:06.245Z,5.50
2022-09-28T12:39:30.669Z,4.70
2022-09-28T12:42:21.075Z,3.50
2022-09-28T12:45:11.361Z,3.10
2022-09-28T12:48:01.407Z,3.00
2022-09-28T12:50:41.597Z,3.10
2022-09-28T12:53:32.470Z,3.40
2022-09-28T12:56:11.763Z,7.20
2022-09-28T12:58:49.412Z,5.30
2022-09-28T13:01:52.005Z,4.70
2022-09-28T13:04:32.124Z,3.60
2022-09-28T13:07:19.505Z,4.80
2022-09-28T13:10:01.637Z,5.50
2022-09-28T13:12:46.978Z,4.50
2022-09-28T13:15:29.563Z,4.80
2022-09-28T13:18:15.680Z,4.10
2022-09-28T13:21:08.910Z,3.50
2022-09-28T13:23:43.319Z,3.60
2022-09-28T13:26:32.392Z,4.00
2022-09-28T13:29:16.246Z,5.70
2022-09-28T13:31:59.797Z,4.90
2022-09-28T13:34:35.381Z,3.90
2022-09-28T13:37:24.484Z,4.10
2022-09-28T13:39:59.921Z,4.20
2022-09-28T13:42:59.099Z,4.80
2022-09-28T13:45:40.566Z,4.30
2022-09-28T13:48:22.777Z,4.60
2022-09-28T13:50:53.633Z,4.00
2022-09-28T13:53:44.278Z,3.90
2022-09-28T13:56:22.602Z,3.90
2022-09-28T13:58:58.685Z,2.60
2022-09-28T14:01:36.540Z,3.50
2022-09-28T14:04:23.593Z,3.30
2022-09-28T14:07:11.286Z,4.00
2022-09-28T14:09:49.829Z,3.00
2022-09-28T14:12:35.149Z,3.60
2022-09-28T14:15:27.529Z,3.50
2022-09-28T14:18:26.394Z,3.10
2022-09-28T14:21:13.999Z,2.80
2022-09-28T14:24:27.556Z,2.50
2022-09-28T14:27:17.366Z,2.80
2022-09-28T14:29:45.851Z,3.10
2022-09-28T14:32:20.330Z,3.70
2022-09-28T14:34:57.045Z,6.60
2022-09-28T14:37:49.417Z,3.20
2022-09-28T14:40:43.698Z,2.90
2022-09-28T14:43:36.523Z,3.10
2022-09-28T14:46:13.250Z,4.10
2022-09-28T14:49:03.899Z,3.40
2022-09-28T14:51:33.305Z,3.70
2022-09-28T14:54:05.680Z,3.80
2022-09-28T14:56:40.399Z,3.50
2022-09-28T14:59:17.448Z,3.40
2022-09-28T15:01:51.231Z,3.40
2022-09-28T15:04:20.807Z,3.10
2022-09-28T15:06:52.046Z,4.80
2022-09-28T15:09:37.148Z,5.00
2022-09-28T15:12:16.051Z,4.00
2022-09-28T15:14:53.884Z,5.70
2022-09-28T15:17:30.582Z,3.50
2022-09-28T15:20:26.627Z,3.40
2022-09-28T15:22:59.286Z,2.80
2022-09-28T15:25:29.759Z,2.10
2022-09-28T15:28:13.362Z,4.00
2022-09-28T15:30:41.248Z,5.00
2022-09-28T15:33:43.051Z,4.70
2022-09-28T15:36:24.431Z,5.20
2022-09-28T15:39:06.653Z,4.50
2022-09-28T15:41:34.888Z,4.80
2022-09-28T15:44:08.520Z,5.10
2022-09-28T15:46:39.149Z,5.10
2022-09-28T15:51:53.394Z,5.40
2022-09-28T15:54:42.902Z,6.90
2022-09-28T15:57:28.783Z,4.80
2022-09-28T16:00:00.903Z,3.50
2022-09-28T16:02:29.881Z,3.60
2022-09-28T16:05:01.798Z,5.80
2022-09-28T16:07:42.527Z,4.60
2022-09-28T16:10:25.546Z,9.90
2022-09-28T16:12:59.244Z,7.30
2022-09-28T16:15:35.464Z,8.10
2022-09-28T16:18:20.321Z,9.60
2022-09-28T16:20:52.119Z,20.10
2022-09-28T16:23:34.167Z,25.90
2022-09-28T16:26:07.072Z,18.70
2022-09-28T16:28:37.600Z,23.00
2022-09-28T16:31:15.562Z,15.40
2022-09-28T16:33:46.336Z,12.00
2022-09-28T16:36:19.944Z,12.60
2022-09-28T16:38:49.191Z,8.60
2022-09-28T16:41:21.677Z,10.80
2022-09-28T16:43:56.569Z,11.70
2022-09-28T16:46:32.272Z,13.20
2022-09-28T16:49:03.675Z,10.80
2022-09-28T16:51:33.112Z,8.90
2022-09-28T16:54:34.164Z,12.20
2022-09-28T16:57:04.932Z,12.00
2022-09-28T16:59:33.331Z,10.60
2022-09-28T17:02:01.370Z,14.00
2022-09-28T17:04:29.297Z,16.00
2022-09-28T17:06:58.536Z,13.20
2022-09-28T17:09:26.455Z,19.80
2022-09-28T17:11:56.391Z,14.70
2022-09-28T17:14:24.589Z,11.60
2022-09-28T17:17:08.186Z,17.90
2022-09-28T17:19:37.762Z,6.70
2022-09-28T17:22:08.125Z,3.00
2022-09-28T17:24:36.457Z,3.80
2022-09-28T17:27:05.539Z,3.50
2022-09-28T17:29:33.422Z,3.40
2022-09-28T17:32:02.872Z,3.10
2022-09-28T17:34:30.695Z,3.50
2022-09-28T17:36:59.092Z,3.50
2022-09-28T17:39:27.426Z,4.30
2022-09-28T17:41:55.287Z,4.10
2022-09-28T17:44:23.367Z,4.80
2022-09-28T17:46:54.117Z,12.10
2022-09-28T17:49:22.073Z,6.80
2022-09-28T17:51:50.548Z,5.40
2022-09-28T17:54:20.942Z,4.40
2022-09-28T17:56:49.348Z,5.30
2022-09-28T17:59:19.192Z,5.50
2022-09-28T18:01:48.594Z,4.30
2022-09-28T18:04:39.766Z,3.70
2022-09-28T18:07:05.680Z,2.70
2022-09-28T18:09:33.522Z,2.40
2022-09-28T18:12:04.748Z,2.20
2022-09-28T18:14:32.990Z,2.30
2022-09-28T18:17:01.035Z,2.30
2022-09-28T18:19:32.158Z,2.20
2022-09-28T18:22:01.858Z,2.40
2022-09-28T18:24:32.602Z,3.10
2022-09-28T18:27:00.694Z,3.10
2022-09-28T18:29:32.913Z,2.30
2022-09-28T18:32:02.919Z,1.40
2022-09-28T18:34:31.831Z,1.80
2022-09-28T18:37:00.415Z,1.90
2022-09-28T18:39:29.048Z,1.70
2022-09-28T18:41:57.206Z,1.60
2022-09-28T18:44:25.606Z,2.10
2022-09-28T18:46:54.600Z,2.80
2022-09-28T18:49:23.335Z,3.50
2022-09-28T18:51:52.151Z,3.10
2022-09-28T18:54:20.403Z,2.40
2022-09-28T18:56:48.471Z,2.50
2022-09-28T18:59:16.855Z,2.20
2022-09-28T19:01:45.271Z,2.80
2022-09-28T19:04:15.202Z,3.70
2022-09-28T19:06:45.192Z,8.30
2022-09-28T19:09:13.536Z,5.10
2022-09-28T19:11:41.548Z,3.40
2022-09-28T19:14:11.717Z,3.60
2022-09-28T19:16:39.728Z,4.60
2022-09-28T19:19:11.095Z,3.70
2022-09-28T19:21:43.341Z,2.40
2022-09-28T19:24:16.178Z,3.20
2022-09-28T19:26:46.850Z,2.30
2022-09-28T19:29:15.651Z,1.90
2022-09-28T19:31:43.627Z,2.60
2022-09-28T19:34:14.295Z,2.50
2022-09-28T19:36:43.483Z,2.80
2022-09-28T19:39:15.383Z,2.60
2022-09-28T19:41:46.013Z,2.40
2022-09-28T19:44:21.302Z,2.20
2022-09-28T19:46:49.144Z,2.70
2022-09-28T19:49:21.427Z,2.10
2022-09-28T19:52:11.532Z,2.40
2022-09-28T19:54:39.818Z,2.70
2022-09-28T19:57:08.900Z,2.70
2022-09-28T19:59:37.407Z,2.40
2022-09-28T20:02:07.620Z,2.50
2022-09-28T20:04:35.838Z,2.60
2022-09-28T20:07:05.337Z,2.50
2022-09-28T20:09:33.256Z,2.30
2022-09-28T20:12:01.326Z,3.40
2022-09-28T20:14:33.987Z,2.80
2022-09-28T20:17:04.341Z,2.80
2022-09-28T20:19:33.689Z,2.50
2022-09-28T20:22:03.331Z,2.20
2022-09-28T20:24:32.712Z,3.20
2022-09-28T20:27:01.566Z,2.40
2022-09-28T20:29:32.235Z,2.80
2022-09-28T20:32:01.284Z,2.70
2022-09-28T20:34:29.066Z,2.60
2022-09-28T20:36:56.850Z,2.40
2022-09-28T20:39:24.800Z,2.60
2022-09-28T20:41:52.753Z,3.30
2022-09-28T20:44:20.728Z,5.00
2022-09-28T20:46:52.470Z,4.20
2022-09-28T20:49:20.386Z,2.80
2022-09-28T20:51:48.248Z,3.20
2022-09-28T20:54:15.931Z,3.10
2022-09-28T20:56:43.860Z,3.30
2022-09-28T20:59:12.158Z,3.50
2022-09-28T21:01:40.885Z,3.90
2022-09-28T21:04:10.332Z,3.20
2022-09-28T21:06:40.561Z,3.70
2022-09-28T21:09:10.709Z,3.60
2022-09-28T21:11:39.063Z,3.20
2022-09-28T21:14:08.274Z,2.70
2022-09-28T21:16:38.174Z,2.90
2022-09-28T21:19:06.063Z,3.00
2022-09-28T21:21:33.883Z,3.10
2022-09-28T21:24:02.466Z,6.30
2022-09-28T21:26:32.945Z,3.80
2022-09-28T21:29:04.464Z,4.50
2022-09-28T21:31:48.746Z,5.30
2022-09-28T21:34:19.494Z,5.00
2022-09-28T21:36:51.450Z,4.70
2022-09-28T21:39:20.358Z,4.50
2022-09-28T21:41:49.472Z,4.10
2022-09-28T21:44:19.299Z,3.50
2022-09-28T21:46:47.743Z,3.70
2022-09-28T21:49:15.829Z,3.80
2022-09-28T21:51:43.683Z,5.10
2022-09-28T21:54:12.151Z,4.10
2022-09-28T21:56:40.095Z,4.20
2022-09-28T21:59:07.899Z,3.90
2022-09-28T22:01:36.111Z,4.30
2022-09-28T22:04:03.933Z,4.40
2022-09-28T22:06:32.085Z,4.50
2022-09-28T22:09:00.205Z,8.30
2022-09-28T22:11:28.936Z,6.30
2022-09-28T22:14:00.138Z,4.90
2022-09-28T22:18:59.216Z,4.30
2022-09-28T22:21:30.267Z,9.50
2022-09-28T22:24:02.534Z,5.10
2022-09-28T22:26:33.791Z,4.40
2022-09-28T22:29:07.765Z,4.80
2022-09-28T22:31:40.650Z,4.60
2022-09-28T22:34:10.058Z,5.30
2022-09-28T22:36:37.859Z,5.30
2022-09-28T22:39:06.536Z,4.30
2022-09-28T22:41:35.615Z,4.10
2022-09-28T22:44:03.477Z,4.60
2022-09-28T22:46:32.661Z,4.20
2022-09-28T22:49:01.285Z,5.00
2022-09-28T22:51:30.175Z,6.60
2022-09-28T22:53:58.737Z,5.40
2022-09-28T22:56:27.095Z,5.70
2022-09-28T22:58:56.823Z,3.60
2022-09-28T23:01:28.144Z,3.60
2022-09-28T23:03:57.785Z,3.00
2022-09-28T23:06:27.910Z,3.10
2022-09-28T23:08:55.836Z,2.70
2022-09-28T23:11:23.692Z,3.10
2022-09-28T23:13:53.883Z,3.10
2022-09-28T23:16:23.735Z,3.10
2022-09-28T23:18:52.917Z,2.80
2022-09-28T23:21:23.619Z,3.20
2022-09-28T23:23:54.892Z,3.80
2022-09-28T23:28:53.903Z,2.60
2022-09-28T23:31:24.620Z,2.70
2022-09-28T23:33:57.556Z,3.00
2022-09-28T23:36:25.762Z,2.30
2022-09-28T23:38:54.083Z,3.10
2022-09-28T23:41:21.962Z,2.90
2022-09-28T23:43:49.899Z,3.20
2022-09-28T23:46:20.902Z,4.90
2022-09-28T23:48:49.960Z,4.70
2022-09-28T23:51:17.852Z,5.30
2022-09-28T23:53:46.609Z,3.90
2022-09-28T23:56:15.054Z,4.70
2022-09-28T23:58:42.966Z,3.50
